sensor_id;sensor_type;location;lat;lon;timestamp;pressure;altitude;pressure_sealevel;temperature;humidity
29907;BME280;16776;50.958;10.994;2023-05-19T00:01:51;99400.59;;;10.45;83.08
29907;BME280;16776;50.958;10.994;2023-05-19T00:04:18;99397.19;;;10.43;82.93
29907;BME280;16776;50.958;10.994;2023-05-19T00:06:49;99391.16;;;10.47;83.06
29907;BME280;16776;50.958;10.994;2023-05-19T00:09:16;99387.81;;;10.40;83.05
29907;BME280;16776;50.958;10.994;2023-05-19T00:11:43;99386.97;;;10.38;82.89
29907;BME280;16776;50.958;10.994;2023-05-19T00:14:11;99390.41;;;10.37;83.12
29907;BME280;16776;50.958;10.994;2023-05-19T00:16:38;99381.88;;;10.35;83.27
29907;BME280;16776;50.958;10.994;2023-05-19T00:19:06;99388.75;;;10.35;82.97
29907;BME280;16776;50.958;10.994;2023-05-19T00:21:34;99374.25;;;10.28;83.31
29907;BME280;16776;50.958;10.994;2023-05-19T00:24:06;99381.88;;;10.35;83.25
29907;BME280;16776;50.958;10.994;2023-05-19T00:26:32;99379.38;;;10.29;83.15
29907;BME280;16776;50.958;10.994;2023-05-19T00:28:59;99377.69;;;10.28;83.46
29907;BME280;16776;50.958;10.994;2023-05-19T00:31:26;99382.84;;;10.27;83.23
29907;BME280;16776;50.958;10.994;2023-05-19T00:33:54;99377.69;;;10.28;83.53
29907;BME280;16776;50.958;10.994;2023-05-19T00:36:21;99363.16;;;10.22;83.69
29907;BME280;16776;50.958;10.994;2023-05-19T00:38:48;99370.06;;;10.20;83.56
29907;BME280;16776;50.958;10.994;2023-05-19T00:41:16;99344.50;;;10.07;83.54
29907;BME280;16776;50.958;10.994;2023-05-19T00:43:43;99368.41;;;10.15;83.68
29907;BME280;16776;50.958;10.994;2023-05-19T00:46:13;99373.50;;;10.19;83.75
29907;BME280;16776;50.958;10.994;2023-05-19T00:48:42;99372.72;;;10.11;83.53
29907;BME280;16776;50.958;10.994;2023-05-19T00:51:11;99370.19;;;10.10;83.70
29907;BME280;16776;50.958;10.994;2023-05-19T00:53:41;99374.53;;;10.05;83.94
29907;BME280;16776;50.958;10.994;2023-05-19T00:56:13;99372.88;;;10.01;84.17
29907;BME280;16776;50.958;10.994;2023-05-19T00:58:41;99376.31;;;10.00;84.29
29907;BME280;16776;50.958;10.994;2023-05-19T01:01:07;99379.81;;;9.94;84.36
29907;BME280;16776;50.958;10.994;2023-05-19T01:03:38;99371.31;;;9.91;84.16
29907;BME280;16776;50.958;10.994;2023-05-19T01:06:07;99369.63;;;9.85;84.61
29907;BME280;16776;50.958;10.994;2023-05-19T01:08:35;99367.06;;;9.85;84.55
29907;BME280;16776;50.958;10.994;2023-05-19T01:11:02;99369.66;;;9.83;84.53
29907;BME280;16776;50.958;10.994;2023-05-19T01:13:29;99373.13;;;9.81;84.70
29907;BME280;16776;50.958;10.994;2023-05-19T01:16:01;99370.53;;;9.84;85.01
29907;BME280;16776;50.958;10.994;2023-05-19T01:18:41;99374.84;;;9.80;85.06
29907;BME280;16776;50.958;10.994;2023-05-19T01:21:35;99381.69;;;9.81;85.38
29907;BME280;16776;50.958;10.994;2023-05-19T01:24:22;99373.19;;;9.76;85.35
29907;BME280;16776;50.958;10.994;2023-05-19T01:27:17;99373.19;;;9.73;85.46
29907;BME280;16776;50.958;10.994;2023-05-19T01:32:48;99349.50;;;9.47;85.47
29907;BME280;16776;50.958;10.994;2023-05-19T01:35:17;99367.41;;;9.56;85.55
29907;BME280;16776;50.958;10.994;2023-05-19T01:37:45;99357.97;;;9.55;85.30
29907;BME280;16776;50.958;10.994;2023-05-19T01:40:12;99358.03;;;9.52;85.67
29907;BME280;16776;50.958;10.994;2023-05-19T01:42:39;99360.63;;;9.51;85.79
29907;BME280;16776;50.958;10.994;2023-05-19T01:45:10;99368.31;;;9.52;85.88
29907;BME280;16776;50.958;10.994;2023-05-19T01:47:42;99360.63;;;9.51;85.97
29907;BME280;16776;50.958;10.994;2023-05-19T01:50:11;99340.22;;;9.32;85.77
29907;BME280;16776;50.958;10.994;2023-05-19T01:52:40;99358.16;;;9.40;85.84
29907;BME280;16776;50.958;10.994;2023-05-19T01:55:08;99363.31;;;9.40;85.91
29907;BME280;16776;50.958;10.994;2023-05-19T01:57:42;99360.69;;;9.41;86.07
29907;BME280;16776;50.958;10.994;2023-05-19T02:00:14;99362.47;;;9.38;85.96
29907;BME280;16776;50.958;10.994;2023-05-19T02:02:51;99360.72;;;9.37;85.90
29907;BME280;16776;50.958;10.994;2023-05-19T02:05:26;99358.16;;;9.35;85.87
29907;BME280;16776;50.958;10.994;2023-05-19T02:08:01;99351.34;;;9.31;86.01
29907;BME280;16776;50.958;10.994;2023-05-19T02:10:32;99358.25;;;9.26;86.00
29907;BME280;16776;50.958;10.994;2023-05-19T02:13:03;99355.72;;;9.23;86.29
29907;BME280;16776;50.958;10.994;2023-05-19T02:15:37;99361.72;;;9.22;86.20
29907;BME280;16776;50.958;10.994;2023-05-19T02:18:08;99356.63;;;9.16;86.45
29907;BME280;16776;50.958;10.994;2023-05-19T02:20:39;99351.53;;;9.12;86.02
29907;BME280;16776;50.958;10.994;2023-05-19T02:23:06;99352.47;;;9.04;86.28
29907;BME280;16776;50.958;10.994;2023-05-19T02:25:33;99351.63;;;9.02;86.48
29907;BME280;16776;50.958;10.994;2023-05-19T02:27:59;99345.66;;;8.99;86.86
29907;BME280;16776;50.958;10.994;2023-05-19T02:30:26;99347.38;;;8.97;86.72
29907;BME280;16776;50.958;10.994;2023-05-19T02:32:52;99344.00;;;8.95;86.84
29907;BME280;16776;50.958;10.994;2023-05-19T02:35:22;99346.56;;;8.93;86.88
29907;BME280;16776;50.958;10.994;2023-05-19T02:37:50;99343.16;;;8.94;87.32
29907;BME280;16776;50.958;10.994;2023-05-19T02:40:17;99344.03;;;8.90;86.61
29907;BME280;16776;50.958;10.994;2023-05-19T02:42:43;99348.34;;;8.88;86.36
29907;BME280;16776;50.958;10.994;2023-05-19T02:45:10;99340.63;;;8.88;86.57
29907;BME280;16776;50.958;10.994;2023-05-19T02:47:37;99340.63;;;8.87;87.18
29907;BME280;16776;50.958;10.994;2023-05-19T02:50:04;99344.06;;;8.86;86.78
29907;BME280;16776;50.958;10.994;2023-05-19T02:52:31;99329.53;;;8.83;86.82
29907;BME280;16776;50.958;10.994;2023-05-19T02:54:59;99342.34;;;8.85;86.75
29907;BME280;16776;50.958;10.994;2023-05-19T02:57:25;99338.13;;;8.81;86.67
29907;BME280;16776;50.958;10.994;2023-05-19T02:59:52;99343.25;;;8.79;86.95
29907;BME280;16776;50.958;10.994;2023-05-19T03:02:18;99341.56;;;8.78;87.00
29907;BME280;16776;50.958;10.994;2023-05-19T03:04:47;99339.88;;;8.76;86.76
29907;BME280;16776;50.958;10.994;2023-05-19T03:07:16;99342.41;;;8.77;87.39
29907;BME280;16776;50.958;10.994;2023-05-19T03:09:44;99339.03;;;8.71;86.99
29907;BME280;16776;50.958;10.994;2023-05-19T03:12:12;99341.66;;;8.69;87.10
29907;BME280;16776;50.958;10.994;2023-05-19T03:14:39;99330.53;;;8.64;87.48
29907;BME280;16776;50.958;10.994;2023-05-19T03:17:05;99334.84;;;8.60;87.41
29907;BME280;16776;50.958;10.994;2023-05-19T03:19:34;99331.47;;;8.57;87.16
29907;BME280;16776;50.958;10.994;2023-05-19T03:22:01;99331.50;;;8.51;87.04
29907;BME280;16776;50.958;10.994;2023-05-19T03:24:27;99336.63;;;8.51;86.92
29907;BME280;16776;50.958;10.994;2023-05-19T03:26:54;99339.22;;;8.46;87.22
29907;BME280;16776;50.958;10.994;2023-05-19T03:29:22;99340.09;;;8.45;87.29
29907;BME280;16776;50.958;10.994;2023-05-19T03:31:48;99334.13;;;8.39;88.00
29907;BME280;16776;50.958;10.994;2023-05-19T03:34:16;99345.31;;;8.36;87.90
29907;BME280;16776;50.958;10.994;2023-05-19T03:36:42;99342.75;;;8.32;87.70
29907;BME280;16776;50.958;10.994;2023-05-19T03:39:09;99341.06;;;8.26;87.47
29907;BME280;16776;50.958;10.994;2023-05-19T03:41:36;99347.94;;;8.22;87.15
29907;BME280;16776;50.958;10.994;2023-05-19T03:44:03;99341.97;;;8.20;88.02
29907;BME280;16776;50.958;10.994;2023-05-19T03:46:30;99345.41;;;8.18;87.67
29907;BME280;16776;50.958;10.994;2023-05-19T03:48:57;99341.13;;;8.12;87.59
29907;BME280;16776;50.958;10.994;2023-05-19T03:51:24;99339.44;;;8.08;87.92
29907;BME280;16776;50.958;10.994;2023-05-19T03:53:52;99339.47;;;8.04;87.53
29907;BME280;16776;50.958;10.994;2023-05-19T03:56:19;99352.31;;;7.99;87.95
29907;BME280;16776;50.958;10.994;2023-05-19T03:58:47;99348.94;;;7.93;87.01
29907;BME280;16776;50.958;10.994;2023-05-19T04:01:14;99340.38;;;7.88;87.88
29907;BME280;16776;50.958;10.994;2023-05-19T04:03:42;99347.25;;;7.84;87.15
29907;BME280;16776;50.958;10.994;2023-05-19T04:06:11;99346.41;;;7.82;87.89
29907;BME280;16776;50.958;10.994;2023-05-19T04:08:38;99349.88;;;7.72;87.74
29907;BME280;16776;50.958;10.994;2023-05-19T04:11:04;99347.31;;;7.69;87.68
29907;BME280;16776;50.958;10.994;2023-05-19T04:13:32;99346.47;;;7.65;87.85
29907;BME280;16776;50.958;10.994;2023-05-19T04:15:59;99349.88;;;7.63;87.45
29907;BME280;16776;50.958;10.994;2023-05-19T04:18:26;99349.88;;;7.61;88.40
29907;BME280;16776;50.958;10.994;2023-05-19T04:20:54;99355.00;;;7.63;88.12
29907;BME280;16776;50.958;10.994;2023-05-19T04:23:20;99351.63;;;7.59;88.29
29907;BME280;16776;50.958;10.994;2023-05-19T04:25:47;99353.34;;;7.60;88.51
29907;BME280;16776;50.958;10.994;2023-05-19T04:28:14;99357.56;;;7.61;88.57
29907;BME280;16776;50.958;10.994;2023-05-19T04:30:42;99361.03;;;7.60;88.08
29907;BME280;16776;50.958;10.994;2023-05-19T04:33:10;99349.91;;;7.58;88.09
29907;BME280;16776;50.958;10.994;2023-05-19T04:35:37;99363.56;;;7.57;87.99
29907;BME280;16776;50.958;10.994;2023-05-19T04:38:06;99360.16;;;7.57;88.49
29907;BME280;16776;50.958;10.994;2023-05-19T04:40:34;99359.34;;;7.53;88.67
29907;BME280;16776;50.958;10.994;2023-05-19T04:43:01;99355.06;;;7.52;88.85
29907;BME280;16776;50.958;10.994;2023-05-19T04:45:27;99367.03;;;7.53;88.21
29907;BME280;16776;50.958;10.994;2023-05-19T04:47:54;99362.75;;;7.54;88.29
29907;BME280;16776;50.958;10.994;2023-05-19T04:50:26;99367.00;;;7.58;88.22
29907;BME280;16776;50.958;10.994;2023-05-19T04:52:53;99358.44;;;7.56;89.25
29907;BME280;16776;50.958;10.994;2023-05-19T04:55:21;99360.13;;;7.61;88.43
29907;BME280;16776;50.958;10.994;2023-05-19T04:57:48;99366.13;;;7.63;88.47
29907;BME280;16776;50.958;10.994;2023-05-19T05:00:15;99356.72;;;7.65;88.41
29907;BME280;16776;50.958;10.994;2023-05-19T05:02:43;99364.41;;;7.65;88.03
29907;BME280;16776;50.958;10.994;2023-05-19T05:05:09;99366.13;;;7.63;88.47
29907;BME280;16776;50.958;10.994;2023-05-19T05:07:39;99352.44;;;7.66;88.88
29907;BME280;16776;50.958;10.994;2023-05-19T05:10:12;99354.16;;;7.67;89.59
29907;BME280;16776;50.958;10.994;2023-05-19T05:12:43;99367.81;;;7.69;89.35
29907;BME280;16776;50.958;10.994;2023-05-19T05:15:11;99366.09;;;7.68;89.70
29907;BME280;16776;50.958;10.994;2023-05-19T05:17:38;99363.53;;;7.71;89.13
29907;BME280;16776;50.958;10.994;2023-05-19T05:20:06;99360.09;;;7.76;88.84
29907;BME280;16776;50.958;10.994;2023-05-19T05:22:33;99364.38;;;7.77;89.11
29907;BME280;16776;50.958;10.994;2023-05-19T05:25:03;99360.06;;;7.82;90.05
29907;BME280;16776;50.958;10.994;2023-05-19T05:27:31;99361.78;;;7.85;89.71
29907;BME280;16776;50.958;10.994;2023-05-19T05:29:59;99366.88;;;7.93;89.59
29907;BME280;16776;50.958;10.994;2023-05-19T05:32:25;99365.16;;;7.98;90.25
29907;BME280;16776;50.958;10.994;2023-05-19T05:34:52;99365.97;;;8.04;89.69
29907;BME280;16776;50.958;10.994;2023-05-19T05:37:19;99370.22;;;8.08;92.10
29907;BME280;16776;50.958;10.994;2023-05-19T05:39:45;99362.53;;;8.17;91.96
29907;BME280;16776;50.958;10.994;2023-05-19T05:42:12;99367.53;;;8.36;93.18
29907;BME280;16776;50.958;10.994;2023-05-19T05:44:40;99365.72;;;8.56;93.08
29907;BME280;16776;50.958;10.994;2023-05-19T05:47:11;99363.75;;;8.88;92.34
29907;BME280;16776;50.958;10.994;2023-05-19T05:49:39;99364.47;;;9.04;91.49
29907;BME280;16776;50.958;10.994;2023-05-19T05:52:10;99371.13;;;9.22;90.58
29907;BME280;16776;50.958;10.994;2023-05-19T05:54:37;99378.78;;;9.28;90.37
29907;BME280;16776;50.958;10.994;2023-05-19T05:57:05;99376.16;;;9.34;90.54
29907;BME280;16776;50.958;10.994;2023-05-19T05:59:32;99374.44;;;9.39;90.71
29907;BME280;16776;50.958;10.994;2023-05-19T06:01:59;99380.41;;;9.44;90.91
29907;BME280;16776;50.958;10.994;2023-05-19T06:04:27;99387.13;;;9.54;90.40
29907;BME280;16776;50.958;10.994;2023-05-19T06:06:53;99383.69;;;9.58;90.48
29907;BME280;16776;50.958;10.994;2023-05-19T06:09:25;99386.19;;;9.66;90.56
29907;BME280;16776;50.958;10.994;2023-05-19T06:11:51;99382.63;;;9.73;91.20
29907;BME280;16776;50.958;10.994;2023-05-19T06:14:18;99379.09;;;9.84;91.56
29907;BME280;16776;50.958;10.994;2023-05-19T06:16:46;99381.47;;;10.01;91.57
29907;BME280;16776;50.958;10.994;2023-05-19T06:19:13;99381.28;;;10.16;91.78
29907;BME280;16776;50.958;10.994;2023-05-19T06:21:41;99381.81;;;10.38;92.13
29907;BME280;16776;50.958;10.994;2023-05-19T06:24:08;99374.69;;;10.58;91.60
29907;BME280;16776;50.958;10.994;2023-05-19T06:26:37;99370.94;;;10.79;91.89
29907;BME280;16776;50.958;10.994;2023-05-19T06:29:03;99366.28;;;11.01;91.22
29907;BME280;16776;50.958;10.994;2023-05-19T06:31:32;99359.88;;;11.23;91.08
29907;BME280;16776;50.958;10.994;2023-05-19T06:34:07;99357.69;;;11.50;90.86
29907;BME280;16776;50.958;10.994;2023-05-19T06:36:36;99351.44;;;11.63;91.09
29907;BME280;16776;50.958;10.994;2023-05-19T06:39:05;99360.31;;;11.93;90.56
29907;BME280;16776;50.958;10.994;2023-05-19T06:41:32;99360.75;;;12.13;90.88
29907;BME280;16776;50.958;10.994;2023-05-19T06:43:59;99360.22;;;12.36;90.39
29907;BME280;16776;50.958;10.994;2023-05-19T06:46:25;99355.38;;;12.60;90.66
29907;BME280;16776;50.958;10.994;2023-05-19T06:48:52;99357.34;;;12.86;89.81
29907;BME280;16776;50.958;10.994;2023-05-19T06:51:18;99357.63;;;13.10;89.70
29907;BME280;16776;50.958;10.994;2023-05-19T06:53:46;99354.41;;;13.34;89.88
29907;BME280;16776;50.958;10.994;2023-05-19T06:56:15;99360.66;;;13.59;89.54
29907;BME280;16776;50.958;10.994;2023-05-19T06:58:43;99355.06;;;13.74;89.12
29907;BME280;16776;50.958;10.994;2023-05-19T07:01:10;99356.34;;;13.89;88.52
29907;BME280;16776;50.958;10.994;2023-05-19T07:03:36;99356.13;;;13.97;87.94
29907;BME280;16776;50.958;10.994;2023-05-19T07:06:03;99360.28;;;14.02;87.67
29907;BME280;16776;50.958;10.994;2023-05-19T07:08:30;99354.19;;;14.05;87.62
29907;BME280;16776;50.958;10.994;2023-05-19T07:10:58;99354.06;;;14.08;87.25
29907;BME280;16776;50.958;10.994;2023-05-19T07:13:26;99359.06;;;14.14;87.87
29907;BME280;16776;50.958;10.994;2023-05-19T07:15:54;99358.84;;;14.21;87.57
29907;BME280;16776;50.958;10.994;2023-05-19T07:18:21;99356.03;;;14.29;87.67
29907;BME280;16776;50.958;10.994;2023-05-19T07:20:50;99351.28;;;14.43;87.61
29907;BME280;16776;50.958;10.994;2023-05-19T07:23:17;99347.81;;;14.44;87.99
29907;BME280;16776;50.958;10.994;2023-05-19T07:25:45;99350.75;;;14.61;87.66
29907;BME280;16776;50.958;10.994;2023-05-19T07:28:12;99353.75;;;14.76;87.63
29907;BME280;16776;50.958;10.994;2023-05-19T07:30:40;99343.72;;;14.91;87.85
29907;BME280;16776;50.958;10.994;2023-05-19T07:33:07;99349.28;;;15.06;87.77
29907;BME280;16776;50.958;10.994;2023-05-19T07:35:33;99351.38;;;15.21;87.36
29907;BME280;16776;50.958;10.994;2023-05-19T07:38:02;99350.09;;;15.34;87.16
29907;BME280;16776;50.958;10.994;2023-05-19T07:40:31;99343.72;;;15.42;86.88
29907;BME280;16776;50.958;10.994;2023-05-19T07:42:58;99347.91;;;15.47;86.45
29907;BME280;16776;50.958;10.994;2023-05-19T07:45:24;99347.78;;;15.50;86.16
29907;BME280;16776;50.958;10.994;2023-05-19T07:47:53;99350.34;;;15.51;86.59
29907;BME280;16776;50.958;10.994;2023-05-19T07:50:20;99344.47;;;15.46;86.37
29907;BME280;16776;50.958;10.994;2023-05-19T07:52:46;99347.13;;;15.45;86.73
29907;BME280;16776;50.958;10.994;2023-05-19T07:55:13;99341.81;;;15.48;87.00
29907;BME280;16776;50.958;10.994;2023-05-19T07:57:42;99341.53;;;15.55;86.99
29907;BME280;16776;50.958;10.994;2023-05-19T08:00:10;99335.16;;;15.64;86.72
29907;BME280;16776;50.958;10.994;2023-05-19T08:02:37;99334.84;;;15.73;87.64
29907;BME280;16776;50.958;10.994;2023-05-19T08:05:06;99334.25;;;15.88;87.54
29907;BME280;16776;50.958;10.994;2023-05-19T08:07:35;99333.94;;;15.97;87.33
29907;BME280;16776;50.958;10.994;2023-05-19T08:10:04;99331.53;;;16.16;86.87
29907;BME280;16776;50.958;10.994;2023-05-19T08:12:31;99325.03;;;16.26;86.95
29907;BME280;16776;50.958;10.994;2023-05-19T08:14:57;99314.13;;;16.40;86.98
29907;BME280;16776;50.958;10.994;2023-05-19T08:17:24;99317.81;;;16.56;86.96
29907;BME280;16776;50.958;10.994;2023-05-19T08:19:50;99317.16;;;16.71;87.08
29907;BME280;16776;50.958;10.994;2023-05-19T08:22:19;99325.16;;;16.88;86.70
29907;BME280;16776;50.958;10.994;2023-05-19T08:24:47;99319.47;;;17.01;86.59
29907;BME280;16776;50.958;10.994;2023-05-19T08:27:15;99315.59;;;17.09;86.17
29907;BME280;16776;50.958;10.994;2023-05-19T08:29:42;99304.88;;;17.17;86.09
29907;BME280;16776;50.958;10.994;2023-05-19T08:32:09;99315.81;;;17.25;86.07
29907;BME280;16776;50.958;10.994;2023-05-19T08:34:38;99301.69;;;17.30;85.58
29907;BME280;16776;50.958;10.994;2023-05-19T08:37:08;99301.69;;;17.30;85.66
29907;BME280;16776;50.958;10.994;2023-05-19T08:39:38;99299.66;;;17.37;85.67
29907;BME280;16776;50.958;10.994;2023-05-19T08:42:05;99293.09;;;17.28;85.61
29907;BME280;16776;50.958;10.994;2023-05-19T08:44:34;99292.00;;;17.34;85.38
29907;BME280;16776;50.958;10.994;2023-05-19T08:47:02;99291.38;;;17.48;85.28
29907;BME280;16776;50.958;10.994;2023-05-19T08:49:32;99291.09;;;17.54;85.24
29907;BME280;16776;50.958;10.994;2023-05-19T08:52:02;99287.41;;;17.59;84.87
29907;BME280;16776;50.958;10.994;2023-05-19T08:54:39;99281.97;;;17.64;84.50
29907;BME280;16776;50.958;10.994;2023-05-19T08:57:08;99281.34;;;17.59;83.70
29907;BME280;16776;50.958;10.994;2023-05-19T08:59:38;99291.75;;;17.59;83.58
29907;BME280;16776;50.958;10.994;2023-05-19T09:02:05;99281.47;;;17.56;83.53
29907;BME280;16776;50.958;10.994;2023-05-19T09:04:34;99278.44;;;17.46;83.18
29907;BME280;16776;50.958;10.994;2023-05-19T09:07:11;99290.16;;;17.36;82.94
29907;BME280;16776;50.958;10.994;2023-05-19T09:09:39;99284.56;;;17.25;83.03
29907;BME280;16776;50.958;10.994;2023-05-19T09:12:08;99292.72;;;17.17;83.35
29907;BME280;16776;50.958;10.994;2023-05-19T09:14:35;99282.63;;;17.10;82.69
29907;BME280;16776;50.958;10.994;2023-05-19T09:17:02;99273.34;;;17.04;82.25
29907;BME280;16776;50.958;10.994;2023-05-19T09:19:29;99272.81;;;16.96;82.71
29907;BME280;16776;50.958;10.994;2023-05-19T09:21:59;99267.53;;;16.97;83.50
29907;BME280;16776;50.958;10.994;2023-05-19T09:24:28;99263.25;;;16.96;83.42
29907;BME280;16776;50.958;10.994;2023-05-19T09:26:56;99253.34;;;17.05;83.95
29907;BME280;16776;50.958;10.994;2023-05-19T09:29:23;99262.59;;;17.12;83.99
29907;BME280;16776;50.958;10.994;2023-05-19T09:31:51;99272.63;;;17.21;83.93
29907;BME280;16776;50.958;10.994;2023-05-19T09:34:18;99260.94;;;17.29;83.17
29907;BME280;16776;50.958;10.994;2023-05-19T09:36:46;99264.00;;;17.39;83.33
29907;BME280;16776;50.958;10.994;2023-05-19T09:39:15;99255.00;;;17.46;83.26
29907;BME280;16776;50.958;10.994;2023-05-19T09:41:43;99264.94;;;17.57;83.63
29907;BME280;16776;50.958;10.994;2023-05-19T09:44:20;99259.63;;;17.78;83.29
29907;BME280;16776;50.958;10.994;2023-05-19T09:46:48;99229.81;;;17.65;82.39
29907;BME280;16776;50.958;10.994;2023-05-19T09:49:19;99261.50;;;17.75;82.24
29907;BME280;16776;50.958;10.994;2023-05-19T09:51:52;99250.88;;;17.79;82.81
29907;BME280;16776;50.958;10.994;2023-05-19T09:54:20;99261.44;;;17.76;81.97
29907;BME280;16776;50.958;10.994;2023-05-19T09:56:55;99261.78;;;17.88;82.06
29907;BME280;16776;50.958;10.994;2023-05-19T09:59:27;99259.13;;;17.89;81.93
29907;BME280;16776;50.958;10.994;2023-05-19T10:01:56;99251.91;;;17.94;82.19
29907;BME280;16776;50.958;10.994;2023-05-19T10:04:23;99262.13;;;17.99;81.29
29907;BME280;16776;50.958;10.994;2023-05-19T10:06:51;99257.75;;;17.99;81.77
29907;BME280;16776;50.958;10.994;2023-05-19T10:09:21;99255.81;;;18.04;81.89
29907;BME280;16776;50.958;10.994;2023-05-19T10:11:50;99247.88;;;18.06;81.89
29907;BME280;16776;50.958;10.994;2023-05-19T10:14:18;99253.94;;;18.06;81.90
29907;BME280;16776;50.958;10.994;2023-05-19T10:16:49;99244.91;;;18.13;81.45
29907;BME280;16776;50.958;10.994;2023-05-19T10:19:17;99245.16;;;18.09;81.49
29907;BME280;16776;50.958;10.994;2023-05-19T10:21:45;99245.16;;;18.09;81.10
29907;BME280;16776;50.958;10.994;2023-05-19T10:24:12;99244.31;;;18.08;80.50
29907;BME280;16776;50.958;10.994;2023-05-19T10:26:40;99240.97;;;18.05;80.82
29907;BME280;16776;50.958;10.994;2023-05-19T10:29:09;99236.84;;;18.01;80.63
29907;BME280;16776;50.958;10.994;2023-05-19T10:31:38;99242.06;;;18.01;80.73
29907;BME280;16776;50.958;10.994;2023-05-19T10:34:20;99239.09;;;18.08;81.14
29907;BME280;16776;50.958;10.994;2023-05-19T10:36:55;99235.56;;;18.09;80.08
29907;BME280;16776;50.958;10.994;2023-05-19T10:39:24;99229.66;;;18.06;80.51
29907;BME280;16776;50.958;10.994;2023-05-19T10:42:01;99227.53;;;18.14;80.48
29907;BME280;16776;50.958;10.994;2023-05-19T10:44:38;99224.97;;;18.12;79.83
29907;BME280;16776;50.958;10.994;2023-05-19T10:47:08;99221.38;;;17.98;79.17
29907;BME280;16776;50.958;10.994;2023-05-19T10:49:41;99215.50;;;17.93;79.85
29907;BME280;16776;50.958;10.994;2023-05-19T10:52:18;99214.88;;;17.88;80.39
29907;BME280;16776;50.958;10.994;2023-05-19T10:54:47;99217.09;;;17.78;79.74
29907;BME280;16776;50.958;10.994;2023-05-19T10:57:19;99220.59;;;17.77;79.88
29907;BME280;16776;50.958;10.994;2023-05-19T10:59:46;99210.13;;;17.78;79.68
29907;BME280;16776;50.958;10.994;2023-05-19T11:02:37;99222.63;;;17.89;79.74
29907;BME280;16776;50.958;10.994;2023-05-19T11:05:12;99213.41;;;17.82;80.04
29907;BME280;16776;50.958;10.994;2023-05-19T11:07:41;99224.81;;;17.79;80.03
29907;BME280;16776;50.958;10.994;2023-05-19T11:10:09;99218.41;;;17.87;79.74
29907;BME280;16776;50.958;10.994;2023-05-19T11:12:40;99211.84;;;17.97;79.76
29907;BME280;16776;50.958;10.994;2023-05-19T11:15:10;99211.84;;;17.97;79.28
29907;BME280;16776;50.958;10.994;2023-05-19T11:17:38;99205.00;;;17.94;79.48
29907;BME280;16776;50.958;10.994;2023-05-19T11:20:11;99206.53;;;17.98;79.57
29907;BME280;16776;50.958;10.994;2023-05-19T11:23:02;99213.88;;;18.09;79.23
29907;BME280;16776;50.958;10.994;2023-05-19T11:25:40;99211.34;;;18.07;78.82
29907;BME280;16776;50.958;10.994;2023-05-19T11:28:09;99200.34;;;18.01;78.87
29907;BME280;16776;50.958;10.994;2023-05-19T11:30:40;99194.06;;;18.05;78.37
29907;BME280;16776;50.958;10.994;2023-05-19T11:33:09;99198.22;;;18.09;78.39
29907;BME280;16776;50.958;10.994;2023-05-19T11:35:38;99198.78;;;18.15;78.74
29907;BME280;16776;50.958;10.994;2023-05-19T11:38:05;99182.44;;;18.12;78.50
29907;BME280;16776;50.958;10.994;2023-05-19T11:40:33;99189.81;;;18.21;78.37
29907;BME280;16776;50.958;10.994;2023-05-19T11:42:59;99181.06;;;18.22;78.44
29907;BME280;16776;50.958;10.994;2023-05-19T11:45:28;99177.63;;;18.22;78.33
29907;BME280;16776;50.958;10.994;2023-05-19T11:48:00;99190.59;;;18.23;78.41
29907;BME280;16776;50.958;10.994;2023-05-19T11:50:27;99179.69;;;18.15;77.57
29907;BME280;16776;50.958;10.994;2023-05-19T11:52:55;99179.63;;;18.16;77.96
29907;BME280;16776;50.958;10.994;2023-05-19T11:55:22;99189.34;;;18.13;77.68
29907;BME280;16776;50.958;10.994;2023-05-19T11:57:59;99185.56;;;18.18;77.67
29907;BME280;16776;50.958;10.994;2023-05-19T12:00:27;99186.97;;;18.08;77.83
29907;BME280;16776;50.958;10.994;2023-05-19T12:02:54;99176.53;;;18.08;77.06
29907;BME280;16776;50.958;10.994;2023-05-19T12:05:25;99179.69;;;18.15;78.18
29907;BME280;16776;50.958;10.994;2023-05-19T12:07:52;99178.91;;;18.13;77.94
29907;BME280;16776;50.958;10.994;2023-05-19T12:10:22;99181.06;;;18.22;78.29
29907;BME280;16776;50.958;10.994;2023-05-19T12:12:49;99180.00;;;18.26;78.41
29907;BME280;16776;50.958;10.994;2023-05-19T12:15:17;99184.91;;;18.32;78.46
29907;BME280;16776;50.958;10.994;2023-05-19T12:17:45;99192.59;;;18.35;78.45
29907;BME280;16776;50.958;10.994;2023-05-19T12:20:12;99194.03;;;18.41;78.37
29907;BME280;16776;50.958;10.994;2023-05-19T12:22:39;99194.72;;;18.44;78.09
29907;BME280;16776;50.958;10.994;2023-05-19T12:25:07;99186.78;;;18.47;78.03
29907;BME280;16776;50.958;10.994;2023-05-19T12:27:35;99181.50;;;18.49;77.62
29907;BME280;16776;50.958;10.994;2023-05-19T12:30:03;99173.19;;;18.41;77.29
29907;BME280;16776;50.958;10.994;2023-05-19T12:32:32;99177.63;;;18.39;77.25
29907;BME280;16776;50.958;10.994;2023-05-19T12:35:01;99177.84;;;18.34;77.50
29907;BME280;16776;50.958;10.994;2023-05-19T12:37:28;99174.09;;;18.23;77.18
29907;BME280;16776;50.958;10.994;2023-05-19T12:39:55;99178.91;;;18.13;77.49
29907;BME280;16776;50.958;10.994;2023-05-19T12:42:22;99177.44;;;18.07;77.60
29907;BME280;16776;50.958;10.994;2023-05-19T12:44:50;99178.44;;;18.05;77.77
29907;BME280;16776;50.958;10.994;2023-05-19T12:47:18;99180.47;;;17.98;77.61
29907;BME280;16776;50.958;10.994;2023-05-19T12:49:52;99172.59;;;18.00;77.72
29907;BME280;16776;50.958;10.994;2023-05-19T12:52:20;99176.72;;;17.87;77.26
29907;BME280;16776;50.958;10.994;2023-05-19T12:54:48;99175.13;;;17.84;77.22
29907;BME280;16776;50.958;10.994;2023-05-19T12:57:15;99180.38;;;17.83;76.83
29907;BME280;16776;50.958;10.994;2023-05-19T12:59:42;99169.41;;;17.76;77.17
29907;BME280;16776;50.958;10.994;2023-05-19T13:02:10;99167.66;;;17.76;77.40
29907;BME280;16776;50.958;10.994;2023-05-19T13:04:36;99172.16;;;17.73;77.20
29907;BME280;16776;50.958;10.994;2023-05-19T13:07:03;99163.44;;;17.74;77.39